Obetz, Ohio
Current Conditions -  °F | °C
As of 3:15 PM on Sunday 25 Jan 2015 (Local Time) from KLCK Reporting Station
Drizzle Drizzle  
Wind Chill: 31°   Ceiling: 500
Heat Index: 36°   Visibility: 3mi
Dew Point: 35°   Wind: 6mph
Humidity: 95%   Direction: 90°E
Pressure: 29.72"   Gusts: NA
Location:  39.8938°N, 82.9624°W
Report Text: KLCK 252015Z AUTO 09005KT 3SM DZ OVC005 02/02 A2972 RMK AO2 T00220015
Loading
Personal Weather Stations






























Interactive Weather Map New forecast layout! Learn more

10-Day Weather Forecast

Advertisements
Track Severe Weather on mobile